PORTS® Data Listing: 8771341 Galveston Bay Entrance, North Jetty,

CO-OPS RAW PORTS DATA

************************      PRELIMINARY DATA      ************************** 

     THIS RAW DATA HAS NOT BEEN SUBJECT TO THE NATIONAL OCEAN SERVICE'S        
     QUALITY CONTROL OR QUALITY ASSURANCE PROCEDURES AND DOES NOT MEET         
     THE CRITERIA AND STANDARDS OF OFFICIAL NATIONAL OCEAN SERVICE             
     DATA.  IT IS RELEASED FOR LIMITED PUBLIC USE AS PRELIMINARY DATA TO       
     BE USED ONLY WITH APPROPRIATE CAUTION.                                    

************************      PRELIMINARY DATA      ************************** 


       CD   -   Calendar date
       T    -   Time
       TZ   -   Timezone
       PW   -   Predicted water level (feet above MLLW)
       OW   -   Observed water level (feet above MLLW)
       WS   -   Wind speed (knots)
       WD   -   Wind direction (degrees true)
       WG   -   Wind gust (knots)
       AT   -   Air temperature (degrees farenheit)
       WT   -   Water temperature (degrees farenheit)
       AP   -   Air pressure (millibars)
       SA   -   Salinty (PSU - Practical Salinity Units)
       SG   -   Specific gravity
       RH   -   Relative humidity
       AG   -   Air gap (feet)
       VI   -   Visibility (nautical miles)

       ** NOTE **
       A variable that has its data fields filled with "9"s, indicates that
       data was not collected for that sample period.
       **********


STATION NAME: Galveston Bay Entrance (8771341)
****************************************************************************************************
    CD       T    TZ    PW     OW    WS   WD   WG    AT    WT    AP    SA    SG     RH    AG   VI
****************************************************************************************************
2019/11/20 12:42 CST    0.76   1.22   11  129   11  67.5  62.6 1016.0 -9.9 -9.999 -99.9 -99.99 -9.99
2019/11/20 12:48 CST    0.73   1.20   11  129   11  67.3  62.6 1015.9 -9.9 -9.999 -99.9 -99.99 -9.99
2019/11/20 12:54 CST    0.71   1.18   11  129   11  67.1  62.6 1015.8 -9.9 -9.999 -99.9 -99.99 -9.99
2019/11/20 13:00 CST    0.69   1.05   10  125   11  66.7  62.6 1015.6 -9.9 -9.999 -99.9 -99.99 -9.99
2019/11/20 13:06 CST    0.67   1.07   10  126   11  67.1  62.6 1015.5 -9.9 -9.999 -99.9 -99.99 -9.99
2019/11/20 13:12 CST    0.65   1.07   11  131   12  67.6  62.6 1015.4 -9.9 -9.999 -99.9 -99.99 -9.99
2019/11/20 13:18 CST    0.63   1.07   12  128   14  67.5  62.8 1015.3 -9.9 -9.999 -99.9 -99.99 -9.99
2019/11/20 13:24 CST    0.61   1.04   12  129   12  66.9  62.8 1015.2 -9.9 -9.999 -99.9 -99.99 -9.99
2019/11/20 13:30 CST    0.59   1.05   12  130   13  67.1  62.8 1015.2 -9.9 -9.999 -99.9 -99.99 -9.99
2019/11/20 13:36 CST    0.57   0.99   13  130   13  67.3  62.8 1015.1 -9.9 -9.999 -99.9 -99.99 -9.99
2019/11/20 13:42 CST    0.55   0.94   12  127   13  66.9  62.8 1015.1 -9.9 -9.999 -99.9 -99.99 -9.99
2019/11/20 13:48 CST    0.53   0.96   12  125   13  67.1  62.8 1014.9 -9.9 -9.999 -99.9 -99.99 -9.99
2019/11/20 13:54 CST    0.52   0.94   12  125   13  66.9  62.8 1014.7 -9.9 -9.999 -99.9 -99.99 -9.99
2019/11/20 14:00 CST    0.50   0.91   11  126   13  66.7  62.6 1014.7 -9.9 -9.999 -99.9 -99.99 -9.99
2019/11/20 14:06 CST    0.49   0.89   12  130   13  66.9  62.8 1014.6 -9.9 -9.999 -99.9 -99.99 -9.99
2019/11/20 14:12 CST    0.47   0.89   11  127   13  66.7  62.8 1014.7 -9.9 -9.999 -99.9 -99.99 -9.99
2019/11/20 14:18 CST    0.46   0.90   11  128   12  66.7  63.0 1014.7 -9.9 -9.999 -99.9 -99.99 -9.99
2019/11/20 14:24 CST    0.45   0.85   11  128   12  66.9  63.0 1014.5 -9.9 -9.999 -99.9 -99.99 -9.99
2019/11/20 14:30 CST    0.44   0.87   13  127   14  67.6  63.0 1014.5 -9.9 -9.999 -99.9 -99.99 -9.99
2019/11/20 14:36 CST    0.43   0.85   13  126   15  67.3  63.1 1014.4 -9.9 -9.999 -99.9 -99.99 -9.99
2019/11/20 14:42 CST    0.42   0.85   13  129   14  67.1  63.1 1014.4 -9.9 -9.999 -99.9 -99.99 -9.99
2019/11/20 14:48 CST    0.41   0.86   13  129   14  67.1  63.3 1014.5 -9.9 -9.999 -99.9 -99.99 -9.99
2019/11/20 14:54 CST    0.41   0.82   13  127   14  66.9  63.3 1014.6 -9.9 -9.999 -99.9 -99.99 -9.99
2019/11/20 15:00 CST    0.40   0.84   12  129   14  66.9  63.3 1014.7 -9.9 -9.999 -99.9 -99.99 -9.99
2019/11/20 15:06 CST    0.40   0.86   13  125   15  67.6  63.3 1014.7 -9.9 -9.999 -99.9 -99.99 -9.99
2019/11/20 15:12 CST    0.40   0.86   11  123   14  67.3  63.5 1014.6 -9.9 -9.999 -99.9 -99.99 -9.99
2019/11/20 15:18 CST    0.39   0.87   12  124   14  67.3  63.5 1014.6 -9.9 -9.999 -99.9 -99.99 -9.99
2019/11/20 15:24 CST    0.39   0.86   12  124   14  67.5  63.5 1014.6 -9.9 -9.999 -99.9 -99.99 -9.99
2019/11/20 15:30 CST    0.39   0.88   14  126   15  67.5  63.5 1014.6 -9.9 -9.999 -99.9 -99.99 -9.99
2019/11/20 15:36 CST    0.39   0.89   14  127   15  67.3  63.5 1014.5 -9.9 -9.999 -99.9 -99.99 -9.99
2019/11/20 15:42 CST    0.39   0.90   13  126   15  67.3  63.7 1014.5 -9.9 -9.999 -99.9 -99.99 -9.99
2019/11/20 15:48 CST    0.40   0.94   13  121   14  67.3  63.7 1014.4 -9.9 -9.999 -99.9 -99.99 -9.99
2019/11/20 15:54 CST    0.40   0.93   13  121   14  67.5  63.7 1014.4 -9.9 -9.999 -99.9 -99.99 -9.99
2019/11/20 16:00 CST    0.40   0.91   13  122   14  67.3  63.7 1014.5 -9.9 -9.999 -99.9 -99.99 -9.99
2019/11/20 16:06 CST    0.41   0.90   12  121   13  67.3  63.7 1014.5 -9.9 -9.999 -99.9 -99.99 -9.99
2019/11/20 16:12 CST    0.41   0.97   11  121   12  67.1  63.9 1014.6 -9.9 -9.999 -99.9 -99.99 -9.99
2019/11/20 16:18 CST    0.42   1.00   12  122   13  67.5  63.9 1014.5 -9.9 -9.999 -99.9 -99.99 -9.99
2019/11/20 16:24 CST    0.43   1.01   12  123   14  67.6  63.9 1014.4 -9.9 -9.999 -99.9 -99.99 -9.99
2019/11/20 16:30 CST    0.44   1.05   13  123   14  67.3  63.9 1014.4 -9.9 -9.999 -99.9 -99.99 -9.99
2019/11/20 16:36 CST    0.45   1.04   14  125   16  67.8  63.9 1014.6 -9.9 -9.999 -99.9 -99.99 -9.99
2019/11/20 16:42 CST    0.45   1.06   14  126   16  68.0  63.9 1014.6 -9.9 -9.999 -99.9 -99.99 -9.99
2019/11/20 16:48 CST    0.46   1.09   13  125   15  67.5  63.9 1014.7 -9.9 -9.999 -99.9 -99.99 -9.99
2019/11/20 16:54 CST    0.48   1.09   13  126   14  67.1  63.9 1014.7 -9.9 -9.999 -99.9 -99.99 -9.99
2019/11/20 17:00 CST    0.49   1.09   13  128   14  67.1  63.9 1014.7 -9.9 -9.999 -99.9 -99.99 -9.99
2019/11/20 17:06 CST    0.50   1.07   13  129   15  67.1  63.9 1014.7 -9.9 -9.999 -99.9 -99.99 -9.99
2019/11/20 17:12 CST    0.51   1.07   14  132   16  68.0  63.9 1014.7 -9.9 -9.999 -99.9 -99.99 -9.99
2019/11/20 17:18 CST    0.53   1.16   16  133   19  68.2  63.9 1014.6 -9.9 -9.999 -99.9 -99.99 -9.99
2019/11/20 17:24 CST    0.54   1.21   16  132   18  68.5  63.9 1014.5 -9.9 -9.999 -99.9 -99.99 -9.99
2019/11/20 17:30 CST    0.56   1.21   14  134   18  67.5  63.9 1014.7 -9.9 -9.999 -99.9 -99.99 -9.99
2019/11/20 17:36 CST    0.57   1.21   13  135   15  67.5  63.9 1014.8 -9.9 -9.999 -99.9 -99.99 -9.99
2019/11/20 17:42 CST    0.59   1.29   13  137   15  67.5  63.9 1014.7 -9.9 -9.999 -99.9 -99.99 -9.99
2019/11/20 17:48 CST    0.61   1.31   14  137   18  67.8  63.9 1014.9 -9.9 -9.999 -99.9 -99.99 -9.99
2019/11/20 17:54 CST    0.63   1.32   12  138   14  67.5  63.9 1014.9 -9.9 -9.999 -99.9 -99.99 -9.99
2019/11/20 18:00 CST    0.65   1.37   12  140   14  67.5  63.7 1014.9 -9.9 -9.999 -99.9 -99.99 -9.99
2019/11/20 18:06 CST    0.67   1.36   14  141   15  67.8  63.7 1015.0 -9.9 -9.999 -99.9 -99.99 -9.99
2019/11/20 18:12 CST    0.69   1.41   13  133   14  67.3  63.9 1014.8 -9.9 -9.999 -99.9 -99.99 -9.99
2019/11/20 18:18 CST    0.72   1.37   15  137   17  67.5  63.9 1014.9 -9.9 -9.999 -99.9 -99.99 -9.99
2019/11/20 18:24 CST    0.74   1.43   14  136   16  67.5  63.7 1015.0 -9.9 -9.999 -99.9 -99.99 -9.99
2019/11/20 18:30 CST    0.77   1.44   15  137   19  68.2  63.3 1015.0 -9.9 -9.999 -99.9 -99.99 -9.99
2019/11/20 18:36 CST    0.79   1.44   15  138   16  67.6  63.1 1015.0 -9.9 -9.999 -99.9 -99.99 -9.99
2019/11/20 18:42 CST    0.82   1.50   14  136   16  67.3  63.1 1015.0 -9.9 -9.999 -99.9 -99.99 -9.99
2019/11/20 18:48 CST    0.84   1.54   13  136   15  67.3  63.1 1015.0 -9.9 -9.999 -99.9 -99.99 -9.99
2019/11/20 18:54 CST    0.87   1.57   13  138   14  67.1  63.1 1015.1 -9.9 -9.999 -99.9 -99.99 -9.99
2019/11/20 19:00 CST    0.90   1.58   13  141   15  67.8  63.0 1015.2 -9.9 -9.999 -99.9 -99.99 -9.99
2019/11/20 19:06 CST    0.93   1.64   14  138   16  67.5  63.0 1015.1 -9.9 -9.999 -99.9 -99.99 -9.99
2019/11/20 19:12 CST    0.96   1.68   15  136   17  67.5  63.0 1015.1 -9.9 -9.999 -99.9 -99.99 -9.99
2019/11/20 19:18 CST    0.99   1.70   13  137   15  67.3  63.0 1015.2 -9.9 -9.999 -99.9 -99.99 -9.99
2019/11/20 19:24 CST    1.02   1.73   14  139   15  67.3  63.0 1015.3 -9.9 -9.999 -99.9 -99.99 -9.99
2019/11/20 19:30 CST    1.05   1.75   14  140   15  67.3  63.0 1015.3 -9.9 -9.999 -99.9 -99.99 -9.99
2019/11/20 19:36 CST    1.08   1.74   14  138   15  67.8  63.0 1015.3 -9.9 -9.999 -99.9 -99.99 -9.99
2019/11/20 19:42 CST    1.11   1.81   14  136   15  67.8  63.0 1015.4 -9.9 -9.999 -99.9 -99.99 -9.99
2019/11/20 19:48 CST    1.14   1.85   12  140   14  67.8  62.8 1015.6 -9.9 -9.999 -99.9 -99.99 -9.99
2019/11/20 19:54 CST    1.17   1.89   12  142   13  67.6  62.8 1015.7 -9.9 -9.999 -99.9 -99.99 -9.99
2019/11/20 20:00 CST    1.20   1.92   12  142   13  67.6  62.8 1015.7 -9.9 -9.999 -99.9 -99.99 -9.99
2019/11/20 20:06 CST    1.23   1.97   12  137   13  67.3  62.6 1015.7 -9.9 -9.999 -99.9 -99.99 -9.99
2019/11/20 20:12 CST    1.26   2.01   13  140   14  67.3  62.6 1015.7 -9.9 -9.999 -99.9 -99.99 -9.99
2019/11/20 20:18 CST    1.29   2.03   12  141   13  67.3  62.6 1015.8 -9.9 -9.999 -99.9 -99.99 -9.99
2019/11/20 20:24 CST    1.32   2.04   12  140   14  67.6  62.6 1015.8 -9.9 -9.999 -99.9 -99.99 -9.99
2019/11/20 20:30 CST    1.35   2.06   12  138   13  67.3  62.6 1015.8 -9.9 -9.999 -99.9 -99.99 -9.99
2019/11/20 20:36 CST    1.38   2.07   11  139   12  67.1  62.6 1015.9 -9.9 -9.999 -99.9 -99.99 -9.99
2019/11/20 20:42 CST    1.40   2.09   12  142   12  67.3  62.6 1015.9 -9.9 -9.999 -99.9 -99.99 -9.99
2019/11/20 20:48 CST    1.43   2.12   12  142   14  68.0  62.6 1015.8 -9.9 -9.999 -99.9 -99.99 -9.99
2019/11/20 20:54 CST    1.45   2.14   11  140   12  67.3  62.6 1015.9 -9.9 -9.999 -99.9 -99.99 -9.99
2019/11/20 21:00 CST    1.48   2.17   11  136   12  67.1  62.6 1015.9 -9.9 -9.999 -99.9 -99.99 -9.99
2019/11/20 21:06 CST    1.50   2.21   12  137   12  67.3  62.6 1015.9 -9.9 -9.999 -99.9 -99.99 -9.99
2019/11/20 21:12 CST    1.53   2.21   12  138   12  67.1  62.6 1015.8 -9.9 -9.999 -99.9 -99.99 -9.99
2019/11/20 21:18 CST    1.55   2.26   12  140   12  67.1  62.6 1015.8 -9.9 -9.999 -99.9 -99.99 -9.99
2019/11/20 21:24 CST    1.57   2.26   12  138   13  67.6  62.6 1015.7 -9.9 -9.999 -99.9 -99.99 -9.99
2019/11/20 21:30 CST    1.59   2.28   13  137   14  67.5  62.6 1015.7 -9.9 -9.999 -99.9 -99.99 -9.99
2019/11/20 21:36 CST    1.61   2.31   13  134   14  67.1  62.6 1015.6 -9.9 -9.999 -99.9 -99.99 -9.99
2019/11/20 21:42 CST    1.63   2.33   15  138   18  67.5  62.6 1015.7 -9.9 -9.999 -99.9 -99.99 -9.99
2019/11/20 21:48 CST    1.65   2.35   14  138   16  67.3  62.6 1015.7 -9.9 -9.999 -99.9 -99.99 -9.99
2019/11/20 21:54 CST    1.67   2.39   13  136   14  67.3  62.8 1015.7 -9.9 -9.999 -99.9 -99.99 -9.99
2019/11/20 22:00 CST    1.68   2.41   14  134   15  67.3  62.8 1015.7 -9.9 -9.999 -99.9 -99.99 -9.99
2019/11/20 22:06 CST    1.70   2.46   14  133   15  67.1  62.8 1015.6 -9.9 -9.999 -99.9 -99.99 -9.99
2019/11/20 22:12 CST    1.71   2.48   15  135   16  67.6  62.8 1015.6 -9.9 -9.999 -99.9 -99.99 -9.99
2019/11/20 22:18 CST    1.72   2.50   15  136   16  67.3  62.8 1015.7 -9.9 -9.999 -99.9 -99.99 -9.99
2019/11/20 22:24 CST    1.74   2.49   15  137   16  67.3  62.8 1015.7 -9.9 -9.999 -99.9 -99.99 -9.99
2019/11/20 22:30 CST    1.75   2.52   14  142   15  67.3  62.8 1015.8 -9.9 -9.999 -99.9 -99.99 -9.99
2019/11/20 22:36 CST    1.76   2.55   14  144   16  67.6  62.8 1015.8 -9.9 -9.999 -99.9 -99.99 -9.99
2019/11/20 22:42 CST    1.77   2.55   15  146   17  68.2  62.8 1015.8 -9.9 -9.999 -99.9 -99.99 -9.99
2019/11/20 22:48 CST    1.78   2.58   15  148   18  68.5  62.8 1015.9 -9.9 -9.999 -99.9 -99.99 -9.99
2019/11/20 22:54 CST    1.79   2.62   14  143   19  67.5  62.8 1015.8 -9.9 -9.999 -99.9 -99.99 -9.99
2019/11/20 23:00 CST    1.79   2.62   14  144   14  67.3  62.8 1015.8 -9.9 -9.999 -99.9 -99.99 -9.99
2019/11/20 23:06 CST    1.80   2.64   13  144   14  67.1  62.8 1015.7 -9.9 -9.999 -99.9 -99.99 -9.99
2019/11/20 23:12 CST    1.80   2.66   12  141   13  66.9  62.8 1015.7 -9.9 -9.999 -99.9 -99.99 -9.99
2019/11/20 23:18 CST    1.81   2.67   12  143   13  66.9  62.8 1015.7 -9.9 -9.999 -99.9 -99.99 -9.99
2019/11/20 23:24 CST    1.81   2.65   12  141   13  66.7  62.8 1015.6 -9.9 -9.999 -99.9 -99.99 -9.99
2019/11/20 23:30 CST    1.81   2.67   12  146   13  66.7  62.8 1015.8 -9.9 -9.999 -99.9 -99.99 -9.99
2019/11/20 23:36 CST    1.82   2.67   11  144   12  66.9  62.8 1015.8 -9.9 -9.999 -99.9 -99.99 -9.99
2019/11/20 23:42 CST    1.82   2.67   11  141   12  66.7  62.8 1015.7 -9.9 -9.999 -99.9 -99.99 -9.99
2019/11/20 23:48 CST    1.81   2.67   11  140   13  67.5  62.8 1015.7 -9.9 -9.999 -99.9 -99.99 -9.99
2019/11/20 23:54 CST    1.81   2.66   11  138   12  67.1  62.8 1015.7 -9.9 -9.999 -99.9 -99.99 -9.99
2019/11/21 00:00 CST    1.81   2.66   10  137   11  66.7  62.8 1015.7 -9.9 -9.999 -99.9 -99.99 -9.99
2019/11/21 00:06 CST    1.81   2.64   10  142   11  66.9  62.8 1015.7 -9.9 -9.999 -99.9 -99.99 -9.99
2019/11/21 00:12 CST    1.80   2.64   11  146   12  67.5  62.8 1015.7 -9.9 -9.999 -99.9 -99.99 -9.99
2019/11/21 00:18 CST    1.80   2.61   11  137   12  67.1  62.6 1015.7 -9.9 -9.999 -99.9 -99.99 -9.99
2019/11/21 00:24 CST    1.79   2.61   12  139   12  66.9  62.6 1015.5 -9.9 -9.999 -99.9 -99.99 -9.99
2019/11/21 00:30 CST    1.78   2.59   12  143   13  67.3  62.6 1015.4 -9.9 -9.999 -99.9 -99.99 -9.99
2019/11/21 00:36 CST    1.77   2.57   12  141   13  67.3  62.6 1015.5 -9.9 -9.999 -99.9 -99.99 -9.99
2019/11/21 00:42 CST    1.76   2.55   11  139   12  66.7  62.6 1015.5 -9.9 -9.999 -99.9 -99.99 -9.99
2019/11/21 00:48 CST    1.75   2.53   10  141   11  66.7  62.6 1015.6 -9.9 -9.999 -99.9 -99.99 -9.99
2019/11/21 00:54 CST    1.74   2.51   10  138   10  66.7  62.6 1015.7 -9.9 -9.999 -99.9 -99.99 -9.99
2019/11/21 01:00 CST    1.73   2.49    8  133   10  66.6  62.6 1015.7 -9.9 -9.999 -99.9 -99.99 -9.99
2019/11/21 01:06 CST    1.72   2.48    9  135    9  66.9  62.6 1015.8 -9.9 -9.999 -99.9 -99.99 -9.99
2019/11/21 01:12 CST    1.70   2.46    9  138    9  67.1  62.6 1015.8 -9.9 -9.999 -99.9 -99.99 -9.99
2019/11/21 01:18 CST    1.69   2.45    9  143   10  67.1  62.6 1015.8 -9.9 -9.999 -99.9 -99.99 -9.99
2019/11/21 01:24 CST    1.67   2.43    9  143   10  67.3  62.6 1015.7 -9.9 -9.999 -99.9 -99.99 -9.99
2019/11/21 01:30 CST    1.66   2.40    9  141   10  67.3  62.6 1015.7 -9.9 -9.999 -99.9 -99.99 -9.99
2019/11/21 01:36 CST    1.64   2.36    9  143   10  67.3  62.6 1015.7 -9.9 -9.999 -99.9 -99.99 -9.99
2019/11/21 01:42 CST    1.63   2.34    8  142   10  67.1  62.6 1015.7 -9.9 -9.999 -99.9 -99.99 -9.99
2019/11/21 01:48 CST    1.61   2.31    9  144   10  67.6  62.6 1015.7 -9.9 -9.999 -99.9 -99.99 -9.99
2019/11/21 01:54 CST    1.60   2.26   10  144   10  67.5  62.6 1015.6 -9.9 -9.999 -99.9 -99.99 -9.99
2019/11/21 02:00 CST    1.58   2.28   10  142   10  67.3  62.6 1015.5 -9.9 -9.999 -99.9 -99.99 -9.99
2019/11/21 02:06 CST    1.56   2.26   10  141   10  67.3  62.6 1015.5 -9.9 -9.999 -99.9 -99.99 -9.99
2019/11/21 02:12 CST    1.55   2.25   11  139   11  67.5  62.6 1015.4 -9.9 -9.999 -99.9 -99.99 -9.99
2019/11/21 02:18 CST    1.53   2.24   11  136   12  67.3  62.6 1015.3 -9.9 -9.999 -99.9 -99.99 -9.99
2019/11/21 02:24 CST    1.52   2.21   11  137   12  67.1  62.6 1015.3 -9.9 -9.999 -99.9 -99.99 -9.99
2019/11/21 02:30 CST    1.50   2.23   11  138   11  67.1  62.6 1015.2 -9.9 -9.999 -99.9 -99.99 -9.99
2019/11/21 02:36 CST    1.49   2.21   11  141   12  67.3  62.6 1015.3 -9.9 -9.999 -99.9 -99.99 -9.99
2019/11/21 02:42 CST    1.47   2.20   11  138   11  67.1  62.6 1015.2 -9.9 -9.999 -99.9 -99.99 -9.99
2019/11/21 02:48 CST    1.46   2.18   11  135   11  66.9  62.6 1015.2 -9.9 -9.999 -99.9 -99.99 -9.99
2019/11/21 02:54 CST    1.44   2.17   10  131   11  66.7  62.6 1015.2 -9.9 -9.999 -99.9 -99.99 -9.99
2019/11/21 03:00 CST    1.43   2.15   10  135   11  67.1  62.6 1015.3 -9.9 -9.999 -99.9 -99.99 -9.99
2019/11/21 03:06 CST    1.41   2.10    9  134   10  66.7  62.6 1015.4 -9.9 -9.999 -99.9 -99.99 -9.99
2019/11/21 03:12 CST    1.40   2.10    9  137   11  67.1  62.6 1015.4 -9.9 -9.999 -99.9 -99.99 -9.99
2019/11/21 03:18 CST    1.39   2.11   10  134   10  66.9  62.6 1015.5 -9.9 -9.999 -99.9 -99.99 -9.99
2019/11/21 03:24 CST    1.37   2.04    9  135   10  66.7  62.4 1015.6 -9.9 -9.999 -99.9 -99.99 -9.99
2019/11/21 03:30 CST    1.36   2.08    9  138   10  67.6  62.4 1015.7 -9.9 -9.999 -99.9 -99.99 -9.99
2019/11/21 03:36 CST    1.35   2.05    9  138    9  67.1  62.6 1015.7 -9.9 -9.999 -99.9 -99.99 -9.99
2019/11/21 03:42 CST    1.34   2.05    8  139    9  67.3  62.6 1015.7 -9.9 -9.999 -99.9 -99.99 -9.99
2019/11/21 03:48 CST    1.32   2.06    8  137    9  67.1  62.6 1015.7 -9.9 -9.999 -99.9 -99.99 -9.99
2019/11/21 03:54 CST    1.31   2.05    9  145   10  67.6  62.6 1015.7 -9.9 -9.999 -99.9 -99.99 -9.99
2019/11/21 04:00 CST    1.30   2.09    9  138   10  67.3  62.6 1015.6 -9.9 -9.999 -99.9 -99.99 -9.99
2019/11/21 04:06 CST    1.29   2.04   10  140   10  67.5  62.6 1015.6 -9.9 -9.999 -99.9 -99.99 -9.99
2019/11/21 04:12 CST    1.28   2.02   10  145   11  68.5  62.6 1015.6 -9.9 -9.999 -99.9 -99.99 -9.99
2019/11/21 04:18 CST    1.27   2.01   10  139   12  67.6  62.6 1015.5 -9.9 -9.999 -99.9 -99.99 -9.99
2019/11/21 04:24 CST    1.26   2.01   10  139   11  67.6  62.6 1015.6 -9.9 -9.999 -99.9 -99.99 -9.99
2019/11/21 04:30 CST    1.25   1.98   11  138   12  68.0  62.6 1015.5 -9.9 -9.999 -99.9 -99.99 -9.99
2019/11/21 04:36 CST    1.24   2.01   11  139   12  67.8  62.6 1015.6 -9.9 -9.999 -99.9 -99.99 -9.99
2019/11/21 04:42 CST    1.23   2.03   10  139   12  67.8  62.6 1015.5 -9.9 -9.999 -99.9 -99.99 -9.99
2019/11/21 04:48 CST    1.22   2.02   10  135   11  67.6  62.6 1015.6 -9.9 -9.999 -99.9 -99.99 -9.99
2019/11/21 04:54 CST    1.21   2.05   10  132   11  67.3  62.6 1015.6 -9.9 -9.999 -99.9 -99.99 -9.99
2019/11/21 05:00 CST    1.20   2.00   10  136   11  67.6  62.6 1015.6 -9.9 -9.999 -99.9 -99.99 -9.99
2019/11/21 05:06 CST    1.19   1.98    9  134   11  68.2  62.8 1015.6 -9.9 -9.999 -99.9 -99.99 -9.99
2019/11/21 05:12 CST    1.18   1.97   13  135   14  68.9  62.8 1015.5 -9.9 -9.999 -99.9 -99.99 -9.99
2019/11/21 05:18 CST    1.17   1.95   15  136   16  69.1  62.8 1015.3 -9.9 -9.999 -99.9 -99.99 -9.99
2019/11/21 05:24 CST    1.17   1.91   13  139   16  68.5  62.8 1015.3 -9.9 -9.999 -99.9 -99.99 -9.99
2019/11/21 05:30 CST    1.16   1.94   15  138   16  69.6  62.8 1015.2 -9.9 -9.999 -99.9 -99.99 -9.99
2019/11/21 05:36 CST    1.15   1.96   12  138   15  69.4  63.0 1015.3 -9.9 -9.999 -99.9 -99.99 -9.99
2019/11/21 05:42 CST    1.15   1.94   13  141   15  68.9  63.0 1015.5 -9.9 -9.999 -99.9 -99.99 -9.99
2019/11/21 05:48 CST    1.14   1.94   12  137   14  68.5  63.0 1015.6 -9.9 -9.999 -99.9 -99.99 -9.99
2019/11/21 05:54 CST    1.14   1.97   13  139   13  68.7  63.0 1015.5 -9.9 -9.999 -99.9 -99.99 -9.99
2019/11/21 06:00 CST    1.13   1.88   14  137   16  69.3  63.0 1015.4 -9.9 -9.999 -99.9 -99.99 -9.99
2019/11/21 06:06 CST    1.13   1.91   12  141   14  68.7  63.0 1015.6 -9.9 -9.999 -99.9 -99.99 -9.99
2019/11/21 06:12 CST    1.13   1.86   12  139   14  68.4  63.0 1015.5 -9.9 -9.999 -99.9 -99.99 -9.99
2019/11/21 06:18 CST    1.13   1.88   14  139   15  68.0  63.0 1015.5 -9.9 -9.999 -99.9 -99.99 -9.99
2019/11/21 06:24 CST    1.13   1.84   13  138   15  67.8  63.0 1015.5 -9.9 -9.999 -99.9 -99.99 -9.99
2019/11/21 06:30 CST    1.13   1.79   13  138   14  68.0  63.0 1015.5 -9.9 -9.999 -99.9 -99.99 -9.99
2019/11/21 06:36 CST    1.13 -99.99 -999 -999 -999 -99.9 -99.9 -999.9 -9.9 -9.999 -99.9 -99.99 -9.99
2019/11/21 06:42 CST    1.13 -99.99 -999 -999 -999 -99.9 -99.9 -999.9 -9.9 -9.999 -99.9 -99.99 -9.99
2019/11/21 06:48 CST    1.13 -99.99 -999 -999 -999 -99.9 -99.9 -999.9 -9.9 -9.999 -99.9 -99.99 -9.99
2019/11/21 06:54 CST    1.14 -99.99 -999 -999 -999 -99.9 -99.9 -999.9 -9.9 -9.999 -99.9 -99.99 -9.99
2019/11/21 07:00 CST    1.14 -99.99 -999 -999 -999 -99.9 -99.9 -999.9 -9.9 -9.999 -99.9 -99.99 -9.99
2019/11/21 07:06 CST    1.15 -99.99 -999 -999 -999 -99.9 -99.9 -999.9 -9.9 -9.999 -99.9 -99.99 -9.99
2019/11/21 07:12 CST    1.15 -99.99 -999 -999 -999 -99.9 -99.9 -999.9 -9.9 -9.999 -99.9 -99.99 -9.99
2019/11/21 07:18 CST    1.16 -99.99 -999 -999 -999 -99.9 -99.9 -999.9 -9.9 -9.999 -99.9 -99.99 -9.99
2019/11/21 07:24 CST    1.17 -99.99 -999 -999 -999 -99.9 -99.9 -999.9 -9.9 -9.999 -99.9 -99.99 -9.99
2019/11/21 07:30 CST    1.18 -99.99 -999 -999 -999 -99.9 -99.9 -999.9 -9.9 -9.999 -99.9 -99.99 -9.99
2019/11/21 07:36 CST    1.18 -99.99 -999 -999 -999 -99.9 -99.9 -999.9 -9.9 -9.999 -99.9 -99.99 -9.99
2019/11/21 07:42 CST    1.19 -99.99 -999 -999 -999 -99.9 -99.9 -999.9 -9.9 -9.999 -99.9 -99.99 -9.99
2019/11/21 07:48 CST    1.20 -99.99 -999 -999 -999 -99.9 -99.9 -999.9 -9.9 -9.999 -99.9 -99.99 -9.99
2019/11/21 07:54 CST    1.21 -99.99 -999 -999 -999 -99.9 -99.9 -999.9 -9.9 -9.999 -99.9 -99.99 -9.99
2019/11/21 08:00 CST    1.22 -99.99 -999 -999 -999 -99.9 -99.9 -999.9 -9.9 -9.999 -99.9 -99.99 -9.99
2019/11/21 08:06 CST    1.23 -99.99 -999 -999 -999 -99.9 -99.9 -999.9 -9.9 -9.999 -99.9 -99.99 -9.99
2019/11/21 08:12 CST    1.24 -99.99 -999 -999 -999 -99.9 -99.9 -999.9 -9.9 -9.999 -99.9 -99.99 -9.99
2019/11/21 08:18 CST    1.25 -99.99 -999 -999 -999 -99.9 -99.9 -999.9 -9.9 -9.999 -99.9 -99.99 -9.99
2019/11/21 08:24 CST    1.26 -99.99 -999 -999 -999 -99.9 -99.9 -999.9 -9.9 -9.999 -99.9 -99.99 -9.99
2019/11/21 08:30 CST    1.27 -99.99 -999 -999 -999 -99.9 -99.9 -999.9 -9.9 -9.999 -99.9 -99.99 -9.99
2019/11/21 08:36 CST    1.28 -99.99 -999 -999 -999 -99.9 -99.9 -999.9 -9.9 -9.999 -99.9 -99.99 -9.99
2019/11/21 08:42 CST    1.29 -99.99 -999 -999 -999 -99.9 -99.9 -999.9 -9.9 -9.999 -99.9 -99.99 -9.99
2019/11/21 08:48 CST    1.30 -99.99 -999 -999 -999 -99.9 -99.9 -999.9 -9.9 -9.999 -99.9 -99.99 -9.99
2019/11/21 08:54 CST    1.31 -99.99 -999 -999 -999 -99.9 -99.9 -999.9 -9.9 -9.999 -99.9 -99.99 -9.99
2019/11/21 09:00 CST    1.32 -99.99 -999 -999 -999 -99.9 -99.9 -999.9 -9.9 -9.999 -99.9 -99.99 -9.99
2019/11/21 09:06 CST    1.33 -99.99 -999 -999 -999 -99.9 -99.9 -999.9 -9.9 -9.999 -99.9 -99.99 -9.99
2019/11/21 09:12 CST    1.34 -99.99 -999 -999 -999 -99.9 -99.9 -999.9 -9.9 -9.999 -99.9 -99.99 -9.99
2019/11/21 09:18 CST    1.34 -99.99 -999 -999 -999 -99.9 -99.9 -999.9 -9.9 -9.999 -99.9 -99.99 -9.99
2019/11/21 09:24 CST    1.35 -99.99 -999 -999 -999 -99.9 -99.9 -999.9 -9.9 -9.999 -99.9 -99.99 -9.99
2019/11/21 09:30 CST    1.35 -99.99 -999 -999 -999 -99.9 -99.9 -999.9 -9.9 -9.999 -99.9 -99.99 -9.99
2019/11/21 09:36 CST    1.36 -99.99 -999 -999 -999 -99.9 -99.9 -999.9 -9.9 -9.999 -99.9 -99.99 -9.99
2019/11/21 09:42 CST    1.36 -99.99 -999 -999 -999 -99.9 -99.9 -999.9 -9.9 -9.999 -99.9 -99.99 -9.99
2019/11/21 09:48 CST    1.37 -99.99 -999 -999 -999 -99.9 -99.9 -999.9 -9.9 -9.999 -99.9 -99.99 -9.99
2019/11/21 09:54 CST    1.37 -99.99 -999 -999 -999 -99.9 -99.9 -999.9 -9.9 -9.999 -99.9 -99.99 -9.99
2019/11/21 10:00 CST    1.37 -99.99 -999 -999 -999 -99.9 -99.9 -999.9 -9.9 -9.999 -99.9 -99.99 -9.99
2019/11/21 10:06 CST    1.38 -99.99 -999 -999 -999 -99.9 -99.9 -999.9 -9.9 -9.999 -99.9 -99.99 -9.99
2019/11/21 10:12 CST    1.38 -99.99 -999 -999 -999 -99.9 -99.9 -999.9 -9.9 -9.999 -99.9 -99.99 -9.99
2019/11/21 10:18 CST    1.38 -99.99 -999 -999 -999 -99.9 -99.9 -999.9 -9.9 -9.999 -99.9 -99.99 -9.99
2019/11/21 10:24 CST    1.38 -99.99 -999 -999 -999 -99.9 -99.9 -999.9 -9.9 -9.999 -99.9 -99.99 -9.99
2019/11/21 10:30 CST    1.38 -99.99 -999 -999 -999 -99.9 -99.9 -999.9 -9.9 -9.999 -99.9 -99.99 -9.99
2019/11/21 10:36 CST    1.38 -99.99 -999 -999 -999 -99.9 -99.9 -999.9 -9.9 -9.999 -99.9 -99.99 -9.99
2019/11/21 10:42 CST    1.38 -99.99 -999 -999 -999 -99.9 -99.9 -999.9 -9.9 -9.999 -99.9 -99.99 -9.99
2019/11/21 10:48 CST    1.37 -99.99 -999 -999 -999 -99.9 -99.9 -999.9 -9.9 -9.999 -99.9 -99.99 -9.99
2019/11/21 10:54 CST    1.37 -99.99 -999 -999 -999 -99.9 -99.9 -999.9 -9.9 -9.999 -99.9 -99.99 -9.99
2019/11/21 11:00 CST    1.37 -99.99 -999 -999 -999 -99.9 -99.9 -999.9 -9.9 -9.999 -99.9 -99.99 -9.99
2019/11/21 11:06 CST    1.36 -99.99 -999 -999 -999 -99.9 -99.9 -999.9 -9.9 -9.999 -99.9 -99.99 -9.99
2019/11/21 11:12 CST    1.36 -99.99 -999 -999 -999 -99.9 -99.9 -999.9 -9.9 -9.999 -99.9 -99.99 -9.99
2019/11/21 11:18 CST    1.35 -99.99 -999 -999 -999 -99.9 -99.9 -999.9 -9.9 -9.999 -99.9 -99.99 -9.99
2019/11/21 11:24 CST    1.34 -99.99 -999 -999 -999 -99.9 -99.9 -999.9 -9.9 -9.999 -99.9 -99.99 -9.99
2019/11/21 11:30 CST    1.34 -99.99 -999 -999 -999 -99.9 -99.9 -999.9 -9.9 -9.999 -99.9 -99.99 -9.99
2019/11/21 11:36 CST    1.33 -99.99 -999 -999 -999 -99.9 -99.9 -999.9 -9.9 -9.999 -99.9 -99.99 -9.99
2019/11/21 11:42 CST    1.32 -99.99 -999 -999 -999 -99.9 -99.9 -999.9 -9.9 -9.999 -99.9 -99.99 -9.99
2019/11/21 11:48 CST    1.31 -99.99 -999 -999 -999 -99.9 -99.9 -999.9 -9.9 -9.999 -99.9 -99.99 -9.99
2019/11/21 11:54 CST    1.30 -99.99 -999 -999 -999 -99.9 -99.9 -999.9 -9.9 -9.999 -99.9 -99.99 -9.99
2019/11/21 12:00 CST    1.29 -99.99 -999 -999 -999 -99.9 -99.9 -999.9 -9.9 -9.999 -99.9 -99.99 -9.99
2019/11/21 12:06 CST    1.28 -99.99 -999 -999 -999 -99.9 -99.9 -999.9 -9.9 -9.999 -99.9 -99.99 -9.99
2019/11/21 12:12 CST    1.27 -99.99 -999 -999 -999 -99.9 -99.9 -999.9 -9.9 -9.999 -99.9 -99.99 -9.99
2019/11/21 12:18 CST    1.25 -99.99 -999 -999 -999 -99.9 -99.9 -999.9 -9.9 -9.999 -99.9 -99.99 -9.99
2019/11/21 12:24 CST    1.24 -99.99 -999 -999 -999 -99.9 -99.9 -999.9 -9.9 -9.999 -99.9 -99.99 -9.99
2019/11/21 12:30 CST    1.22 -99.99 -999 -999 -999 -99.9 -99.9 -999.9 -9.9 -9.999 -99.9 -99.99 -9.99
2019/11/21 12:36 CST    1.21 -99.99 -999 -999 -999 -99.9 -99.9 -999.9 -9.9 -9.999 -99.9 -99.99 -9.99
2019/11/21 12:42 CST    1.19 -99.99 -999 -999 -999 -99.9 -99.9 -999.9 -9.9 -9.999 -99.9 -99.99 -9.99